sensor_id;sensor_type;location;lat;lon;timestamp;temperature;humidity
19348;DHT22;9810;52.480;9.806;2023-03-01T00:01:00;-4.40;99.90
19348;DHT22;9810;52.480;9.806;2023-03-01T00:03:28;-4.40;99.90
19348;DHT22;9810;52.480;9.806;2023-03-01T00:05:57;-4.40;99.90
19348;DHT22;9810;52.480;9.806;2023-03-01T00:08:26;-4.40;99.90
19348;DHT22;9810;52.480;9.806;2023-03-01T00:11:01;-4.50;99.90
19348;DHT22;9810;52.480;9.806;2023-03-01T00:13:29;-4.40;99.90
19348;DHT22;9810;52.480;9.806;2023-03-01T00:15:56;-4.40;99.90
19348;DHT22;9810;52.480;9.806;2023-03-01T00:18:23;-4.50;99.90
19348;DHT22;9810;52.480;9.806;2023-03-01T00:20:52;-4.50;99.90
19348;DHT22;9810;52.480;9.806;2023-03-01T00:23:21;-4.60;99.90
19348;DHT22;9810;52.480;9.806;2023-03-01T00:25:49;-4.50;99.90
19348;DHT22;9810;52.480;9.806;2023-03-01T00:28:16;-4.40;99.90
19348;DHT22;9810;52.480;9.806;2023-03-01T00:30:44;-4.50;99.90
19348;DHT22;9810;52.480;9.806;2023-03-01T00:33:11;-4.20;99.90
19348;DHT22;9810;52.480;9.806;2023-03-01T00:35:38;-4.00;99.90
19348;DHT22;9810;52.480;9.806;2023-03-01T00:38:06;-4.00;99.90
19348;DHT22;9810;52.480;9.806;2023-03-01T00:40:36;-4.40;99.90
19348;DHT22;9810;52.480;9.806;2023-03-01T00:43:03;-4.60;99.90
19348;DHT22;9810;52.480;9.806;2023-03-01T00:45:32;-4.60;99.90
19348;DHT22;9810;52.480;9.806;2023-03-01T00:48:00;-4.70;99.90
19348;DHT22;9810;52.480;9.806;2023-03-01T00:50:27;-4.90;99.90
19348;DHT22;9810;52.480;9.806;2023-03-01T00:52:55;-5.00;99.90
19348;DHT22;9810;52.480;9.806;2023-03-01T00:55:23;-5.00;99.90
19348;DHT22;9810;52.480;9.806;2023-03-01T00:57:52;-5.10;99.90
19348;DHT22;9810;52.480;9.806;2023-03-01T01:00:20;-5.10;99.90
19348;DHT22;9810;52.480;9.806;2023-03-01T01:02:48;-5.10;99.90
19348;DHT22;9810;52.480;9.806;2023-03-01T01:05:16;-5.10;99.90
19348;DHT22;9810;52.480;9.806;2023-03-01T01:07:46;-5.00;99.90
19348;DHT22;9810;52.480;9.806;2023-03-01T01:10:13;-5.00;99.90
19348;DHT22;9810;52.480;9.806;2023-03-01T01:12:43;-5.00;99.90
19348;DHT22;9810;52.480;9.806;2023-03-01T01:15:12;-5.00;99.90
19348;DHT22;9810;52.480;9.806;2023-03-01T01:17:42;-5.10;99.90
19348;DHT22;9810;52.480;9.806;2023-03-01T01:20:10;-5.10;99.90
19348;DHT22;9810;52.480;9.806;2023-03-01T01:22:37;-5.20;99.90
19348;DHT22;9810;52.480;9.806;2023-03-01T01:25:05;-4.80;99.90
19348;DHT22;9810;52.480;9.806;2023-03-01T01:27:33;-4.50;99.90
19348;DHT22;9810;52.480;9.806;2023-03-01T01:30:00;-4.40;99.90
19348;DHT22;9810;52.480;9.806;2023-03-01T01:32:29;-4.30;99.90
19348;DHT22;9810;52.480;9.806;2023-03-01T01:34:56;-4.70;99.90
19348;DHT22;9810;52.480;9.806;2023-03-01T01:37:23;-4.60;99.90
19348;DHT22;9810;52.480;9.806;2023-03-01T01:39:56;-5.00;99.90
19348;DHT22;9810;52.480;9.806;2023-03-01T01:42:23;-5.10;99.90
19348;DHT22;9810;52.480;9.806;2023-03-01T01:45:24;-5.30;99.90
19348;DHT22;9810;52.480;9.806;2023-03-01T01:47:57;-5.40;99.90
19348;DHT22;9810;52.480;9.806;2023-03-01T01:50:26;-5.50;99.90
19348;DHT22;9810;52.480;9.806;2023-03-01T01:53:06;-5.40;99.90
19348;DHT22;9810;52.480;9.806;2023-03-01T01:55:37;-5.20;99.90
19348;DHT22;9810;52.480;9.806;2023-03-01T01:58:08;-4.80;99.90
19348;DHT22;9810;52.480;9.806;2023-03-01T02:00:37;-4.60;99.90
19348;DHT22;9810;52.480;9.806;2023-03-01T02:03:10;-4.50;99.90
19348;DHT22;9810;52.480;9.806;2023-03-01T02:05:42;-4.60;99.90
19348;DHT22;9810;52.480;9.806;2023-03-01T02:08:12;-4.90;99.90
19348;DHT22;9810;52.480;9.806;2023-03-01T02:10:41;-5.10;99.90
19348;DHT22;9810;52.480;9.806;2023-03-01T02:13:09;-5.10;99.90
19348;DHT22;9810;52.480;9.806;2023-03-01T02:15:38;-5.30;99.90
19348;DHT22;9810;52.480;9.806;2023-03-01T02:18:08;-5.30;99.90
19348;DHT22;9810;52.480;9.806;2023-03-01T02:20:40;-5.10;99.90
19348;DHT22;9810;52.480;9.806;2023-03-01T02:23:11;-5.00;99.90
19348;DHT22;9810;52.480;9.806;2023-03-01T02:25:47;-5.30;99.90
19348;DHT22;9810;52.480;9.806;2023-03-01T02:31:15;-5.50;99.90
19348;DHT22;9810;52.480;9.806;2023-03-01T02:34:00;-5.60;99.90
19348;DHT22;9810;52.480;9.806;2023-03-01T02:36:34;-5.30;99.90
19348;DHT22;9810;52.480;9.806;2023-03-01T02:39:05;-5.40;99.90
19348;DHT22;9810;52.480;9.806;2023-03-01T02:41:35;-5.60;99.90
19348;DHT22;9810;52.480;9.806;2023-03-01T02:44:04;-5.50;99.90
19348;DHT22;9810;52.480;9.806;2023-03-01T02:46:41;-5.20;99.90
19348;DHT22;9810;52.480;9.806;2023-03-01T02:49:19;-5.00;99.90
19348;DHT22;9810;52.480;9.806;2023-03-01T02:52:01;-4.80;99.90
19348;DHT22;9810;52.480;9.806;2023-03-01T02:54:38;-4.90;99.90
19348;DHT22;9810;52.480;9.806;2023-03-01T02:57:07;-5.20;99.90
19348;DHT22;9810;52.480;9.806;2023-03-01T02:59:35;-5.50;99.90
19348;DHT22;9810;52.480;9.806;2023-03-01T03:02:06;-5.70;99.90
19348;DHT22;9810;52.480;9.806;2023-03-01T03:04:34;-5.70;99.90
19348;DHT22;9810;52.480;9.806;2023-03-01T03:07:01;-5.20;99.90
19348;DHT22;9810;52.480;9.806;2023-03-01T03:09:28;-4.90;99.90
19348;DHT22;9810;52.480;9.806;2023-03-01T03:11:55;-4.80;99.90
19348;DHT22;9810;52.480;9.806;2023-03-01T03:14:23;-4.80;99.90
19348;DHT22;9810;52.480;9.806;2023-03-01T03:16:50;-4.80;99.90
19348;DHT22;9810;52.480;9.806;2023-03-01T03:19:19;-5.40;99.90
19348;DHT22;9810;52.480;9.806;2023-03-01T03:21:46;-5.70;99.90
19348;DHT22;9810;52.480;9.806;2023-03-01T03:24:15;-5.70;99.90
19348;DHT22;9810;52.480;9.806;2023-03-01T03:26:43;-5.80;99.90
19348;DHT22;9810;52.480;9.806;2023-03-01T03:29:10;-5.50;99.90
19348;DHT22;9810;52.480;9.806;2023-03-01T03:31:37;-5.70;99.90
19348;DHT22;9810;52.480;9.806;2023-03-01T03:34:04;-5.80;99.90
19348;DHT22;9810;52.480;9.806;2023-03-01T03:36:33;-5.80;99.90
19348;DHT22;9810;52.480;9.806;2023-03-01T03:39:01;-5.70;99.90
19348;DHT22;9810;52.480;9.806;2023-03-01T03:41:28;-5.70;99.90
19348;DHT22;9810;52.480;9.806;2023-03-01T03:43:55;-5.80;99.90
19348;DHT22;9810;52.480;9.806;2023-03-01T03:46:22;-5.60;99.90
19348;DHT22;9810;52.480;9.806;2023-03-01T03:48:50;-5.80;99.90
19348;DHT22;9810;52.480;9.806;2023-03-01T03:51:18;-6.00;99.90
19348;DHT22;9810;52.480;9.806;2023-03-01T03:53:49;-6.00;99.90
19348;DHT22;9810;52.480;9.806;2023-03-01T03:56:17;-6.10;99.90
19348;DHT22;9810;52.480;9.806;2023-03-01T03:58:44;-6.10;99.90
19348;DHT22;9810;52.480;9.806;2023-03-01T04:01:11;-5.90;99.90
19348;DHT22;9810;52.480;9.806;2023-03-01T04:03:38;-5.90;99.90
19348;DHT22;9810;52.480;9.806;2023-03-01T04:06:07;-5.90;99.90
19348;DHT22;9810;52.480;9.806;2023-03-01T04:08:34;-5.90;99.90
19348;DHT22;9810;52.480;9.806;2023-03-01T04:11:04;-5.90;99.90
19348;DHT22;9810;52.480;9.806;2023-03-01T04:13:45;-5.90;99.90
19348;DHT22;9810;52.480;9.806;2023-03-01T04:16:13;-5.80;99.90
19348;DHT22;9810;52.480;9.806;2023-03-01T04:18:40;-5.80;99.90
19348;DHT22;9810;52.480;9.806;2023-03-01T04:21:07;-5.80;99.90
19348;DHT22;9810;52.480;9.806;2023-03-01T04:23:35;-5.90;99.90
19348;DHT22;9810;52.480;9.806;2023-03-01T04:26:04;-6.00;99.90
19348;DHT22;9810;52.480;9.806;2023-03-01T04:28:34;-6.00;99.90
19348;DHT22;9810;52.480;9.806;2023-03-01T04:31:04;-6.10;99.90
19348;DHT22;9810;52.480;9.806;2023-03-01T04:33:38;-6.20;99.90
19348;DHT22;9810;52.480;9.806;2023-03-01T04:36:08;-6.30;99.90
19348;DHT22;9810;52.480;9.806;2023-03-01T04:38:36;-6.30;99.90
19348;DHT22;9810;52.480;9.806;2023-03-01T04:41:07;-5.90;99.90
19348;DHT22;9810;52.480;9.806;2023-03-01T04:43:35;-5.70;99.90
19348;DHT22;9810;52.480;9.806;2023-03-01T04:46:05;-5.60;99.90
19348;DHT22;9810;52.480;9.806;2023-03-01T04:48:34;-5.80;99.90
19348;DHT22;9810;52.480;9.806;2023-03-01T04:51:03;-6.10;99.90
19348;DHT22;9810;52.480;9.806;2023-03-01T04:53:32;-6.10;99.90
19348;DHT22;9810;52.480;9.806;2023-03-01T04:55:59;-5.80;99.90
19348;DHT22;9810;52.480;9.806;2023-03-01T04:58:28;-5.70;99.90
19348;DHT22;9810;52.480;9.806;2023-03-01T05:00:56;-5.60;99.90
19348;DHT22;9810;52.480;9.806;2023-03-01T05:03:23;-5.70;99.90
19348;DHT22;9810;52.480;9.806;2023-03-01T05:05:52;-5.70;99.90
19348;DHT22;9810;52.480;9.806;2023-03-01T05:08:19;-6.00;99.90
19348;DHT22;9810;52.480;9.806;2023-03-01T05:10:49;-6.30;99.90
19348;DHT22;9810;52.480;9.806;2023-03-01T05:13:17;-6.40;99.90
19348;DHT22;9810;52.480;9.806;2023-03-01T05:15:54;-6.50;99.90
19348;DHT22;9810;52.480;9.806;2023-03-01T05:18:21;-6.50;99.90
19348;DHT22;9810;52.480;9.806;2023-03-01T05:20:51;-6.60;99.90
19348;DHT22;9810;52.480;9.806;2023-03-01T05:23:21;-6.50;99.90
19348;DHT22;9810;52.480;9.806;2023-03-01T05:25:49;-6.20;99.90
19348;DHT22;9810;52.480;9.806;2023-03-01T05:28:18;-6.10;99.90
19348;DHT22;9810;52.480;9.806;2023-03-01T05:30:47;-5.90;99.90
19348;DHT22;9810;52.480;9.806;2023-03-01T05:33:18;-6.10;99.90
19348;DHT22;9810;52.480;9.806;2023-03-01T05:35:47;-6.40;99.90
19348;DHT22;9810;52.480;9.806;2023-03-01T05:38:16;-6.50;99.90
19348;DHT22;9810;52.480;9.806;2023-03-01T05:40:45;-6.50;99.90
19348;DHT22;9810;52.480;9.806;2023-03-01T05:43:15;-6.60;99.90
19348;DHT22;9810;52.480;9.806;2023-03-01T05:45:44;-6.60;99.90
19348;DHT22;9810;52.480;9.806;2023-03-01T05:48:12;-6.70;99.90
19348;DHT22;9810;52.480;9.806;2023-03-01T05:50:42;-6.70;99.90
19348;DHT22;9810;52.480;9.806;2023-03-01T05:53:11;-6.30;99.90
19348;DHT22;9810;52.480;9.806;2023-03-01T05:55:39;-6.10;99.90
19348;DHT22;9810;52.480;9.806;2023-03-01T05:58:09;-6.10;99.90
19348;DHT22;9810;52.480;9.806;2023-03-01T06:00:37;-5.90;99.90
19348;DHT22;9810;52.480;9.806;2023-03-01T06:03:05;-6.10;99.90
19348;DHT22;9810;52.480;9.806;2023-03-01T06:05:32;-6.40;99.90
19348;DHT22;9810;52.480;9.806;2023-03-01T06:08:01;-6.60;99.90
19348;DHT22;9810;52.480;9.806;2023-03-01T06:10:29;-6.60;99.90
19348;DHT22;9810;52.480;9.806;2023-03-01T06:12:57;-6.60;99.90
19348;DHT22;9810;52.480;9.806;2023-03-01T06:15:25;-6.60;99.90
19348;DHT22;9810;52.480;9.806;2023-03-01T06:17:54;-6.60;99.90
19348;DHT22;9810;52.480;9.806;2023-03-01T06:20:24;-6.70;99.90
19348;DHT22;9810;52.480;9.806;2023-03-01T06:22:52;-6.70;99.90
19348;DHT22;9810;52.480;9.806;2023-03-01T06:25:23;-6.70;99.90
19348;DHT22;9810;52.480;9.806;2023-03-01T06:27:51;-6.20;99.90
19348;DHT22;9810;52.480;9.806;2023-03-01T06:30:20;-5.90;99.90
19348;DHT22;9810;52.480;9.806;2023-03-01T06:32:48;-5.80;99.90
19348;DHT22;9810;52.480;9.806;2023-03-01T06:35:16;-5.70;99.90
19348;DHT22;9810;52.480;9.806;2023-03-01T06:37:45;-5.60;99.90
19348;DHT22;9810;52.480;9.806;2023-03-01T06:40:13;-5.60;99.90
19348;DHT22;9810;52.480;9.806;2023-03-01T06:42:46;-5.80;99.90
19348;DHT22;9810;52.480;9.806;2023-03-01T06:45:15;-6.00;99.90
19348;DHT22;9810;52.480;9.806;2023-03-01T06:47:42;-5.80;99.90
19348;DHT22;9810;52.480;9.806;2023-03-01T06:50:10;-5.70;99.90
19348;DHT22;9810;52.480;9.806;2023-03-01T06:52:38;-5.80;99.90
19348;DHT22;9810;52.480;9.806;2023-03-01T06:55:06;-5.90;99.90
19348;DHT22;9810;52.480;9.806;2023-03-01T06:57:33;-6.00;99.90
19348;DHT22;9810;52.480;9.806;2023-03-01T07:00:03;-6.00;99.90
19348;DHT22;9810;52.480;9.806;2023-03-01T07:02:31;-5.90;99.90
19348;DHT22;9810;52.480;9.806;2023-03-01T07:04:58;-5.60;99.90
19348;DHT22;9810;52.480;9.806;2023-03-01T07:07:26;-5.10;99.90
19348;DHT22;9810;52.480;9.806;2023-03-01T07:09:53;-4.90;99.90
19348;DHT22;9810;52.480;9.806;2023-03-01T07:12:20;-5.10;99.90
19348;DHT22;9810;52.480;9.806;2023-03-01T07:14:48;-5.00;99.90
19348;DHT22;9810;52.480;9.806;2023-03-01T07:17:16;-5.00;99.90
19348;DHT22;9810;52.480;9.806;2023-03-01T07:19:44;-5.00;99.90
19348;DHT22;9810;52.480;9.806;2023-03-01T07:22:11;-4.80;99.90
19348;DHT22;9810;52.480;9.806;2023-03-01T07:24:39;-4.80;99.90
19348;DHT22;9810;52.480;9.806;2023-03-01T07:27:07;-4.70;99.90
19348;DHT22;9810;52.480;9.806;2023-03-01T07:29:34;-4.70;99.90
19348;DHT22;9810;52.480;9.806;2023-03-01T07:32:02;-4.60;99.90
19348;DHT22;9810;52.480;9.806;2023-03-01T07:34:31;-4.40;99.90
19348;DHT22;9810;52.480;9.806;2023-03-01T07:36:59;-4.00;99.90
19348;DHT22;9810;52.480;9.806;2023-03-01T07:39:26;-3.80;99.90
19348;DHT22;9810;52.480;9.806;2023-03-01T07:41:53;-3.30;99.90
19348;DHT22;9810;52.480;9.806;2023-03-01T07:44:21;-2.40;99.90
19348;DHT22;9810;52.480;9.806;2023-03-01T07:46:48;-1.50;99.90
19348;DHT22;9810;52.480;9.806;2023-03-01T07:49:17;-0.60;99.90
19348;DHT22;9810;52.480;9.806;2023-03-01T07:51:47;0.50;99.90
19348;DHT22;9810;52.480;9.806;2023-03-01T07:54:14;1.00;99.90
19348;DHT22;9810;52.480;9.806;2023-03-01T07:56:42;1.40;99.90
19348;DHT22;9810;52.480;9.806;2023-03-01T07:59:09;1.80;99.90
19348;DHT22;9810;52.480;9.806;2023-03-01T08:01:36;2.50;99.90
19348;DHT22;9810;52.480;9.806;2023-03-01T08:04:04;3.10;99.90
19348;DHT22;9810;52.480;9.806;2023-03-01T08:06:34;3.00;99.90
19348;DHT22;9810;52.480;9.806;2023-03-01T08:09:03;3.20;99.90
19348;DHT22;9810;52.480;9.806;2023-03-01T08:11:30;4.00;99.90
19348;DHT22;9810;52.480;9.806;2023-03-01T08:13:57;4.50;99.90
19348;DHT22;9810;52.480;9.806;2023-03-01T08:16:25;5.00;99.90
19348;DHT22;9810;52.480;9.806;2023-03-01T08:18:52;5.40;99.90
19348;DHT22;9810;52.480;9.806;2023-03-01T08:21:22;5.80;99.90
19348;DHT22;9810;52.480;9.806;2023-03-01T08:23:49;7.30;99.90
19348;DHT22;9810;52.480;9.806;2023-03-01T08:26:20;7.70;99.90
19348;DHT22;9810;52.480;9.806;2023-03-01T08:28:48;7.60;99.90
19348;DHT22;9810;52.480;9.806;2023-03-01T08:31:18;5.40;99.90
19348;DHT22;9810;52.480;9.806;2023-03-01T08:33:46;5.40;99.90
19348;DHT22;9810;52.480;9.806;2023-03-01T08:36:16;6.30;99.90
19348;DHT22;9810;52.480;9.806;2023-03-01T08:38:44;6.90;99.90
19348;DHT22;9810;52.480;9.806;2023-03-01T08:41:11;6.50;99.90
19348;DHT22;9810;52.480;9.806;2023-03-01T08:43:40;7.40;99.90
19348;DHT22;9810;52.480;9.806;2023-03-01T08:46:07;7.60;99.90
19348;DHT22;9810;52.480;9.806;2023-03-01T08:48:35;7.20;99.90
19348;DHT22;9810;52.480;9.806;2023-03-01T08:51:09;6.70;99.90
19348;DHT22;9810;52.480;9.806;2023-03-01T08:53:38;6.80;99.90
19348;DHT22;9810;52.480;9.806;2023-03-01T08:56:06;7.30;99.90
19348;DHT22;9810;52.480;9.806;2023-03-01T08:58:34;8.20;99.90
19348;DHT22;9810;52.480;9.806;2023-03-01T09:01:07;7.80;99.90
19348;DHT22;9810;52.480;9.806;2023-03-01T09:03:34;7.80;99.90
19348;DHT22;9810;52.480;9.806;2023-03-01T09:06:02;9.20;99.90
19348;DHT22;9810;52.480;9.806;2023-03-01T09:08:30;11.50;99.90
19348;DHT22;9810;52.480;9.806;2023-03-01T09:10:57;10.80;99.90
19348;DHT22;9810;52.480;9.806;2023-03-01T09:13:24;9.50;99.90
19348;DHT22;9810;52.480;9.806;2023-03-01T09:15:56;7.50;99.90
19348;DHT22;9810;52.480;9.806;2023-03-01T09:18:25;6.80;99.90
19348;DHT22;9810;52.480;9.806;2023-03-01T09:20:53;7.30;99.90
19348;DHT22;9810;52.480;9.806;2023-03-01T09:23:21;7.80;99.90
19348;DHT22;9810;52.480;9.806;2023-03-01T09:25:49;10.10;99.90
19348;DHT22;9810;52.480;9.806;2023-03-01T09:28:16;8.50;99.90
19348;DHT22;9810;52.480;9.806;2023-03-01T09:30:43;7.50;99.90
19348;DHT22;9810;52.480;9.806;2023-03-01T09:33:10;8.40;99.90
19348;DHT22;9810;52.480;9.806;2023-03-01T09:35:41;7.70;99.90
19348;DHT22;9810;52.480;9.806;2023-03-01T09:38:12;10.40;99.90
19348;DHT22;9810;52.480;9.806;2023-03-01T09:40:42;12.10;99.90
19348;DHT22;9810;52.480;9.806;2023-03-01T09:43:18;13.50;99.90
19348;DHT22;9810;52.480;9.806;2023-03-01T09:45:48;10.50;99.90
19348;DHT22;9810;52.480;9.806;2023-03-01T09:48:18;10.90;99.90
19348;DHT22;9810;52.480;9.806;2023-03-01T09:50:49;11.30;99.90
19348;DHT22;9810;52.480;9.806;2023-03-01T09:53:19;11.50;99.90
19348;DHT22;9810;52.480;9.806;2023-03-01T09:55:54;10.40;99.90
19348;DHT22;9810;52.480;9.806;2023-03-01T09:58:38;9.30;99.90
19348;DHT22;9810;52.480;9.806;2023-03-01T10:01:21;8.40;99.90
19348;DHT22;9810;52.480;9.806;2023-03-01T10:04:05;11.30;99.90
19348;DHT22;9810;52.480;9.806;2023-03-01T10:06:40;12.10;98.70
19348;DHT22;9810;52.480;9.806;2023-03-01T10:09:13;12.80;97.60
19348;DHT22;9810;52.480;9.806;2023-03-01T10:11:44;11.10;99.40
19348;DHT22;9810;52.480;9.806;2023-03-01T10:14:18;11.80;98.90
19348;DHT22;9810;52.480;9.806;2023-03-01T10:16:52;11.50;98.50
19348;DHT22;9810;52.480;9.806;2023-03-01T10:19:28;13.40;97.40
19348;DHT22;9810;52.480;9.806;2023-03-01T10:22:03;12.00;98.70
19348;DHT22;9810;52.480;9.806;2023-03-01T10:24:34;11.80;99.00
19348;DHT22;9810;52.480;9.806;2023-03-01T10:27:06;11.10;99.90
19348;DHT22;9810;52.480;9.806;2023-03-01T10:29:39;10.40;99.90
19348;DHT22;9810;52.480;9.806;2023-03-01T10:32:09;12.60;97.50
19348;DHT22;9810;52.480;9.806;2023-03-01T10:34:37;13.30;96.20
19348;DHT22;9810;52.480;9.806;2023-03-01T10:37:20;13.60;95.50
19348;DHT22;9810;52.480;9.806;2023-03-01T10:39:58;12.30;95.40
19348;DHT22;9810;52.480;9.806;2023-03-01T10:42:28;12.00;95.70
19348;DHT22;9810;52.480;9.806;2023-03-01T10:44:58;10.10;98.00
19348;DHT22;9810;52.480;9.806;2023-03-01T10:47:27;9.80;97.90
19348;DHT22;9810;52.480;9.806;2023-03-01T10:49:57;10.80;99.50
19348;DHT22;9810;52.480;9.806;2023-03-01T10:52:29;10.70;97.40
19348;DHT22;9810;52.480;9.806;2023-03-01T10:54:59;12.30;97.20
19348;DHT22;9810;52.480;9.806;2023-03-01T10:57:32;10.60;97.10
19348;DHT22;9810;52.480;9.806;2023-03-01T11:00:16;9.90;97.00
19348;DHT22;9810;52.480;9.806;2023-03-01T11:02:47;9.50;99.10
19348;DHT22;9810;52.480;9.806;2023-03-01T11:05:21;11.70;99.00
19348;DHT22;9810;52.480;9.806;2023-03-01T11:07:54;14.10;95.80
19348;DHT22;9810;52.480;9.806;2023-03-01T11:10:24;14.40;92.60
19348;DHT22;9810;52.480;9.806;2023-03-01T11:12:52;12.80;93.00
19348;DHT22;9810;52.480;9.806;2023-03-01T11:15:23;11.50;93.90
19348;DHT22;9810;52.480;9.806;2023-03-01T11:17:51;11.70;93.50
19348;DHT22;9810;52.480;9.806;2023-03-01T11:20:25;11.50;93.60
19348;DHT22;9810;52.480;9.806;2023-03-01T11:22:56;11.60;92.90
19348;DHT22;9810;52.480;9.806;2023-03-01T11:25:29;11.90;92.00
19348;DHT22;9810;52.480;9.806;2023-03-01T11:27:59;11.90;91.80
19348;DHT22;9810;52.480;9.806;2023-03-01T11:30:32;12.50;91.60
19348;DHT22;9810;52.480;9.806;2023-03-01T11:33:13;11.50;90.80
19348;DHT22;9810;52.480;9.806;2023-03-01T11:35:45;10.10;91.40
19348;DHT22;9810;52.480;9.806;2023-03-01T11:38:22;9.30;93.60
19348;DHT22;9810;52.480;9.806;2023-03-01T11:40:53;11.30;93.70
19348;DHT22;9810;52.480;9.806;2023-03-01T11:43:29;11.50;93.40
19348;DHT22;9810;52.480;9.806;2023-03-01T11:52:18;11.50;89.00
19348;DHT22;9810;52.480;9.806;2023-03-01T11:54:59;9.20;92.20
19348;DHT22;9810;52.480;9.806;2023-03-01T11:57:49;8.40;95.60
19348;DHT22;9810;52.480;9.806;2023-03-01T12:00:41;8.60;95.10
19348;DHT22;9810;52.480;9.806;2023-03-01T12:03:27;10.00;94.50
19348;DHT22;9810;52.480;9.806;2023-03-01T12:06:30;8.70;93.80
19348;DHT22;9810;52.480;9.806;2023-03-01T12:09:15;9.50;94.50
19348;DHT22;9810;52.480;9.806;2023-03-01T12:11:58;9.60;94.40
19348;DHT22;9810;52.480;9.806;2023-03-01T12:14:41;10.00;95.10
19348;DHT22;9810;52.480;9.806;2023-03-01T12:17:25;10.50;94.00
19348;DHT22;9810;52.480;9.806;2023-03-01T12:20:12;9.80;95.00
19348;DHT22;9810;52.480;9.806;2023-03-01T12:22:56;8.70;94.90
19348;DHT22;9810;52.480;9.806;2023-03-01T12:25:31;8.20;95.70
19348;DHT22;9810;52.480;9.806;2023-03-01T12:28:33;8.20;95.90
19348;DHT22;9810;52.480;9.806;2023-03-01T12:31:21;7.80;96.10
19348;DHT22;9810;52.480;9.806;2023-03-01T12:34:01;7.50;98.00
19348;DHT22;9810;52.480;9.806;2023-03-01T12:36:52;7.40;98.30
19348;DHT22;9810;52.480;9.806;2023-03-01T12:39:36;7.30;99.40
19348;DHT22;9810;52.480;9.806;2023-03-01T12:42:18;7.50;99.20
19348;DHT22;9810;52.480;9.806;2023-03-01T12:45:01;7.80;99.50
19348;DHT22;9810;52.480;9.806;2023-03-01T12:47:49;7.60;98.00
19348;DHT22;9810;52.480;9.806;2023-03-01T12:50:21;7.40;98.20
19348;DHT22;9810;52.480;9.806;2023-03-01T12:52:51;7.20;99.50
19348;DHT22;9810;52.480;9.806;2023-03-01T12:55:31;7.50;98.90
19348;DHT22;9810;52.480;9.806;2023-03-01T12:58:06;7.60;99.90
19348;DHT22;9810;52.480;9.806;2023-03-01T13:00:43;7.60;99.90
19348;DHT22;9810;52.480;9.806;2023-03-01T13:03:20;7.60;99.70
19348;DHT22;9810;52.480;9.806;2023-03-01T13:06:01;7.60;99.60
19348;DHT22;9810;52.480;9.806;2023-03-01T13:08:38;7.30;99.90
19348;DHT22;9810;52.480;9.806;2023-03-01T13:11:16;7.20;99.90
19348;DHT22;9810;52.480;9.806;2023-03-01T13:13:44;7.10;99.90
19348;DHT22;9810;52.480;9.806;2023-03-01T13:19:08;7.50;99.90
19348;DHT22;9810;52.480;9.806;2023-03-01T13:21:37;7.30;99.90
19348;DHT22;9810;52.480;9.806;2023-03-01T13:24:04;7.00;99.90
19348;DHT22;9810;52.480;9.806;2023-03-01T13:27:22;6.80;99.90
19348;DHT22;9810;52.480;9.806;2023-03-01T13:29:56;7.50;99.90
19348;DHT22;9810;52.480;9.806;2023-03-01T13:32:29;7.60;99.90
19348;DHT22;9810;52.480;9.806;2023-03-01T13:34:59;7.60;99.90
19348;DHT22;9810;52.480;9.806;2023-03-01T13:37:29;7.80;99.90
19348;DHT22;9810;52.480;9.806;2023-03-01T13:40:00;7.60;99.90
19348;DHT22;9810;52.480;9.806;2023-03-01T13:42:34;7.70;99.90
19348;DHT22;9810;52.480;9.806;2023-03-01T13:45:04;7.70;99.90
19348;DHT22;9810;52.480;9.806;2023-03-01T13:47:35;7.60;99.90
19348;DHT22;9810;52.480;9.806;2023-03-01T13:50:04;7.70;99.90
19348;DHT22;9810;52.480;9.806;2023-03-01T13:52:38;7.50;99.90
19348;DHT22;9810;52.480;9.806;2023-03-01T13:55:16;7.60;99.90
19348;DHT22;9810;52.480;9.806;2023-03-01T13:57:47;7.60;99.90
19348;DHT22;9810;52.480;9.806;2023-03-01T14:00:31;7.70;99.90
19348;DHT22;9810;52.480;9.806;2023-03-01T14:03:08;7.40;99.90
19348;DHT22;9810;52.480;9.806;2023-03-01T14:05:37;7.60;99.90
19348;DHT22;9810;52.480;9.806;2023-03-01T14:08:17;7.50;99.90
19348;DHT22;9810;52.480;9.806;2023-03-01T14:10:51;7.70;99.90
19348;DHT22;9810;52.480;9.806;2023-03-01T14:13:36;7.90;99.20
19348;DHT22;9810;52.480;9.806;2023-03-01T14:16:17;7.70;98.90
19348;DHT22;9810;52.480;9.806;2023-03-01T14:18:54;7.40;98.70
19348;DHT22;9810;52.480;9.806;2023-03-01T14:21:26;7.60;99.60
19348;DHT22;9810;52.480;9.806;2023-03-01T14:23:53;7.40;98.90
19348;DHT22;9810;52.480;9.806;2023-03-01T14:26:21;7.20;98.80
19348;DHT22;9810;52.480;9.806;2023-03-01T14:28:49;7.30;99.90
19348;DHT22;9810;52.480;9.806;2023-03-01T14:31:36;7.50;99.90
19348;DHT22;9810;52.480;9.806;2023-03-01T14:34:05;7.80;99.60
19348;DHT22;9810;52.480;9.806;2023-03-01T14:36:34;8.10;98.50
19348;DHT22;9810;52.480;9.806;2023-03-01T14:39:01;7.80;98.90
19348;DHT22;9810;52.480;9.806;2023-03-01T14:41:34;7.90;98.60
19348;DHT22;9810;52.480;9.806;2023-03-01T14:44:06;7.60;98.20
19348;DHT22;9810;52.480;9.806;2023-03-01T14:46:37;7.60;99.00
19348;DHT22;9810;52.480;9.806;2023-03-01T14:49:14;7.90;99.30
19348;DHT22;9810;52.480;9.806;2023-03-01T14:51:51;8.10;99.40
19348;DHT22;9810;52.480;9.806;2023-03-01T14:54:22;8.00;97.60
19348;DHT22;9810;52.480;9.806;2023-03-01T14:56:52;8.10;97.40
19348;DHT22;9810;52.480;9.806;2023-03-01T14:59:21;8.10;97.70
19348;DHT22;9810;52.480;9.806;2023-03-01T15:01:50;7.90;97.40
19348;DHT22;9810;52.480;9.806;2023-03-01T15:04:20;7.80;98.00
19348;DHT22;9810;52.480;9.806;2023-03-01T15:06:50;7.50;96.40
19348;DHT22;9810;52.480;9.806;2023-03-01T15:09:19;7.50;96.80
19348;DHT22;9810;52.480;9.806;2023-03-01T15:11:46;7.60;96.90
19348;DHT22;9810;52.480;9.806;2023-03-01T15:14:38;7.60;97.60
19348;DHT22;9810;52.480;9.806;2023-03-01T15:17:20;7.60;97.10
19348;DHT22;9810;52.480;9.806;2023-03-01T15:19:52;7.60;95.80
19348;DHT22;9810;52.480;9.806;2023-03-01T15:22:21;7.40;95.40
19348;DHT22;9810;52.480;9.806;2023-03-01T15:24:50;7.80;96.20
19348;DHT22;9810;52.480;9.806;2023-03-01T15:27:19;7.50;95.80
19348;DHT22;9810;52.480;9.806;2023-03-01T15:29:49;7.50;96.20
19348;DHT22;9810;52.480;9.806;2023-03-01T15:32:26;7.70;96.60
19348;DHT22;9810;52.480;9.806;2023-03-01T15:34:56;7.60;96.70
19348;DHT22;9810;52.480;9.806;2023-03-01T15:37:40;7.80;95.90
19348;DHT22;9810;52.480;9.806;2023-03-01T15:40:21;7.70;95.90
19348;DHT22;9810;52.480;9.806;2023-03-01T15:42:56;7.70;96.80
19348;DHT22;9810;52.480;9.806;2023-03-01T15:45:26;7.90;96.70
19348;DHT22;9810;52.480;9.806;2023-03-01T15:47:55;8.00;97.30
19348;DHT22;9810;52.480;9.806;2023-03-01T15:50:30;7.70;98.00
19348;DHT22;9810;52.480;9.806;2023-03-01T15:52:59;7.50;98.60
19348;DHT22;9810;52.480;9.806;2023-03-01T15:55:28;7.40;99.10
19348;DHT22;9810;52.480;9.806;2023-03-01T15:58:01;7.30;98.30
19348;DHT22;9810;52.480;9.806;2023-03-01T16:00:29;7.30;98.30
19348;DHT22;9810;52.480;9.806;2023-03-01T16:02:56;7.50;98.90
19348;DHT22;9810;52.480;9.806;2023-03-01T16:05:26;7.30;98.70
19348;DHT22;9810;52.480;9.806;2023-03-01T16:07:54;7.20;98.20
19348;DHT22;9810;52.480;9.806;2023-03-01T16:10:22;7.00;97.90
19348;DHT22;9810;52.480;9.806;2023-03-01T16:12:50;6.90;97.60
19348;DHT22;9810;52.480;9.806;2023-03-01T16:15:20;6.80;97.90
19348;DHT22;9810;52.480;9.806;2023-03-01T16:17:48;6.80;97.70
19348;DHT22;9810;52.480;9.806;2023-03-01T16:20:16;6.80;98.30
19348;DHT22;9810;52.480;9.806;2023-03-01T16:22:43;6.70;98.20
19348;DHT22;9810;52.480;9.806;2023-03-01T16:25:14;6.80;97.90
19348;DHT22;9810;52.480;9.806;2023-03-01T16:27:43;6.60;97.30
19348;DHT22;9810;52.480;9.806;2023-03-01T16:30:12;6.50;97.60